Time;durP1;ratioP1;P1;durP2;ratioP2;P2;SDS_P1;SDS_P2;PMS_P1;PMS_P2;Temp;Humidity;BMP_temperature;BMP_pressure;BME280_temperature;BME280_humidity;BME280_pressure;Samples;Min_cycle;Max_cycle;Signal;HPM_P1;HPM_P2
2022/03/17 00:00:56;;;;;;;20.93;16.53;;;13.20;88.90;;;;;;5052226;28;20416;-65
2022/03/17 00:03:23;;;;;;;19.43;17.03;;;13.30;89.20;;;;;;5052601;28;21034;-65
2022/03/17 00:05:49;;;;;;;19.77;17.70;;;13.20;88.90;;;;;;5052666;28;20512;-65
2022/03/17 00:08:16;;;;;;;22.57;18.73;;;13.20;88.90;;;;;;5052916;28;20410;-65
2022/03/17 00:10:42;;;;;;;18.90;16.83;;;13.30;88.80;;;;;;5052355;28;20409;-65
2022/03/17 00:13:08;;;;;;;19.20;16.97;;;13.30;88.70;;;;;;5052843;28;20785;-65
2022/03/17 00:15:34;;;;;;;22.17;19.23;;;13.50;89.20;;;;;;5052757;28;20415;-65
2022/03/17 00:18:00;;;;;;;19.33;17.30;;;13.30;88.50;;;;;;5052183;28;20525;-65
2022/03/17 00:20:26;;;;;;;19.47;17.30;;;13.30;88.90;;;;;;5052381;28;20223;-65
2022/03/17 00:22:52;;;;;;;20.50;17.90;;;13.30;89.10;;;;;;5052073;28;20826;-65
2022/03/17 00:25:17;;;;;;;19.47;17.37;;;13.30;89.00;;;;;;5052168;28;20171;-65
2022/03/17 00:27:43;;;;;;;20.30;18.13;;;13.30;88.80;;;;;;5050833;28;20183;-65
2022/03/17 00:30:10;;;;;;;21.37;19.00;;;13.30;88.60;;;;;;5052317;28;20174;-64
2022/03/17 00:32:38;;;;;;;20.23;18.07;;;13.10;89.00;;;;;;5052865;28;20434;-65
2022/03/17 00:37:53;;;;;;;20.90;18.63;;;13.10;89.50;;;;;;5051990;28;20407;-65
2022/03/17 00:40:19;;;;;;;24.27;19.13;;;13.30;89.60;;;;;;5052508;28;20744;-65
2022/03/17 00:42:45;;;;;;;23.27;17.90;;;13.30;88.90;;;;;;5051820;28;20470;-65
2022/03/17 00:45:12;;;;;;;21.90;18.20;;;13.30;88.70;;;;;;5052568;28;20423;-65
2022/03/17 00:47:39;;;;;;;23.77;20.33;;;13.30;89.00;;;;;;5052437;28;20173;-65
2022/03/17 00:50:08;;;;;;;19.70;17.60;;;13.40;88.90;;;;;;5051535;28;20426;-65
2022/03/17 00:52:34;;;;;;;21.43;18.83;;;13.40;88.70;;;;;;5052415;28;20428;-65
2022/03/17 00:54:59;;;;;;;23.37;18.73;;;13.30;89.30;;;;;;5051784;28;20754;-64
2022/03/17 00:57:25;;;;;;;22.20;19.80;;;13.40;89.00;;;;;;5052220;28;20629;-65
2022/03/17 00:59:51;;;;;;;21.33;18.03;;;13.40;89.00;;;;;;5051724;28;20176;-65
2022/03/17 01:02:17;;;;;;;21.67;18.77;;;13.30;89.10;;;;;;5052357;28;20258;-65
2022/03/17 01:04:42;;;;;;;20.23;18.03;;;13.40;89.20;;;;;;5052059;28;20216;-73
2022/03/17 01:07:08;;;;;;;20.70;18.50;;;13.40;88.90;;;;;;5052215;28;20606;-65
2022/03/17 01:09:34;;;;;;;20.43;18.33;;;13.40;88.90;;;;;;5052239;28;20180;-65
2022/03/17 01:12:02;;;;;;;21.47;18.37;;;13.40;88.80;;;;;;5051896;28;20185;-65
2022/03/17 01:14:28;;;;;;;26.00;19.70;;;13.40;88.90;;;;;;5050985;28;20409;-65
2022/03/17 01:16:54;;;;;;;22.23;18.83;;;13.50;88.80;;;;;;5051596;28;20956;-65
2022/03/17 01:19:20;;;;;;;21.90;19.60;;;13.40;89.00;;;;;;5050843;28;20185;-65
2022/03/17 01:21:48;;;;;;;20.97;18.07;;;13.50;88.80;;;;;;5051510;28;20475;-65
2022/03/17 01:24:14;;;;;;;22.93;19.53;;;13.50;88.10;;;;;;5052068;28;20176;-65
2022/03/17 01:26:40;;;;;;;24.80;19.80;;;13.30;88.60;;;;;;5052087;28;20427;-65
2022/03/17 01:29:06;;;;;;;21.87;19.47;;;13.40;89.10;;;;;;5051154;28;20443;-65
2022/03/17 01:31:32;;;;;;;22.30;19.90;;;13.40;88.50;;;;;;5051697;28;20461;-64
2022/03/17 01:33:58;;;;;;;22.60;19.40;;;13.20;89.00;;;;;;5051425;28;20197;-65
2022/03/17 01:36:25;;;;;;;21.73;19.23;;;13.20;88.90;;;;;;5052968;28;20207;-65
2022/03/17 01:38:50;;;;;;;23.30;18.87;;;13.30;89.40;;;;;;5055159;28;20449;-65
2022/03/17 01:41:16;;;;;;;24.17;21.03;;;13.40;89.10;;;;;;5037771;28;20965;-65
2022/03/17 01:43:43;;;;;;;21.13;18.93;;;13.40;88.80;;;;;;5054338;28;20306;-65
2022/03/17 01:46:11;;;;;;;26.23;20.60;;;13.20;89.30;;;;;;5054960;28;20181;-65
2022/03/17 01:48:37;;;;;;;21.50;19.20;;;13.20;89.40;;;;;;5055524;28;20530;-65
2022/03/17 01:51:03;;;;;;;23.20;20.63;;;13.20;89.80;;;;;;5054933;28;20410;-65
2022/03/17 01:53:30;;;;;;;21.87;19.47;;;13.30;89.70;;;;;;5055406;28;20444;-65
2022/03/17 01:55:58;;;;;;;23.00;19.13;;;13.10;89.40;;;;;;5054776;28;20423;-65
2022/03/17 01:58:24;;;;;;;22.30;19.43;;;13.20;89.60;;;;;;5055422;28;20498;-65
2022/03/17 02:00:50;;;;;;;26.93;19.97;;;13.30;89.30;;;;;;5054827;28;20438;-65
2022/03/17 02:03:17;;;;;;;21.87;18.70;;;13.20;89.20;;;;;;5055315;28;20493;-65
2022/03/17 02:05:43;;;;;;;23.87;19.80;;;13.30;90.00;;;;;;5054054;28;20893;-65
2022/03/17 02:08:10;;;;;;;26.53;21.60;;;13.20;89.10;;;;;;5054327;28;20818;-65
2022/03/17 02:13:22;;;;;;;22.70;20.20;;;13.10;89.80;;;;;;5055333;28;20764;-65
2022/03/17 02:15:52;;;;;;;21.20;18.93;;;13.00;89.30;;;;;;5054502;28;20408;-65
2022/03/17 02:18:18;;;;;;;23.13;19.73;;;13.00;89.90;;;;;;5055066;28;20412;-65
2022/03/17 02:20:44;;;;;;;23.20;19.63;;;13.10;90.10;;;;;;5054547;28;20460;-65
2022/03/17 02:26:04;;;;;;;23.00;20.50;;;13.20;89.80;;;;;;5053351;28;20403;-65
2022/03/17 02:28:32;;;;;;;21.87;18.30;;;13.20;89.50;;;;;;5055266;28;20446;-65
2022/03/17 02:30:59;;;;;;;23.13;19.70;;;13.10;89.20;;;;;;5053924;28;20416;-65
2022/03/17 02:33:25;;;;;;;24.50;20.93;;;13.10;90.00;;;;;;5054797;28;20435;-64
2022/03/17 02:35:53;;;;;;;23.20;19.73;;;13.10;90.00;;;;;;5052907;28;20410;-65
2022/03/17 02:38:20;;;;;;;24.33;20.50;;;13.10;90.00;;;;;;5054910;28;20486;-65
2022/03/17 02:40:50;;;;;;;24.70;18.90;;;13.30;90.10;;;;;;5054554;28;20416;-64
2022/03/17 02:43:16;;;;;;;21.83;18.87;;;13.20;89.60;;;;;;5054399;28;20509;-65
2022/03/17 02:45:43;;;;;;;24.80;19.97;;;13.20;89.40;;;;;;5054538;28;20412;-65
2022/03/17 02:48:10;;;;;;;22.47;18.80;;;13.30;89.70;;;;;;5053316;28;20521;-65
2022/03/17 02:50:35;;;;;;;22.97;20.57;;;13.40;89.20;;;;;;5054410;28;20406;-64
2022/03/17 02:53:06;;;;;;;23.97;19.27;;;13.40;89.20;;;;;;5053780;28;20423;-64
2022/03/17 02:55:36;;;;;;;22.90;19.40;;;13.40;89.10;;;;;;5054333;28;20212;-64
2022/03/17 02:58:04;;;;;;;21.60;19.30;;;13.40;89.20;;;;;;5053963;28;20461;-65
2022/03/17 03:00:30;;;;;;;23.57;20.33;;;13.50;88.90;;;;;;5054126;28;20560;-65
2022/03/17 03:02:56;;;;;;;23.83;21.30;;;13.50;88.40;;;;;;5053477;28;20566;-65
2022/03/17 03:05:22;;;;;;;23.20;20.10;;;13.60;88.40;;;;;;5054244;28;20173;-64
2022/03/17 03:07:49;;;;;;;23.10;20.33;;;13.70;88.60;;;;;;5054001;28;20181;-65
2022/03/17 03:10:14;;;;;;;22.47;19.93;;;13.70;88.50;;;;;;5053727;28;20892;-64
2022/03/17 03:12:41;;;;;;;25.57;21.40;;;13.70;87.80;;;;;;5053958;28;20425;-64
2022/03/17 03:15:07;;;;;;;25.80;20.07;;;13.70;88.10;;;;;;5053371;28;20190;-65
2022/03/17 03:17:33;;;;;;;22.87;20.30;;;13.70;87.70;;;;;;5053847;28;20407;-65
2022/03/17 03:19:59;;;;;;;23.40;20.20;;;13.60;87.70;;;;;;5053207;28;20546;-64
2022/03/17 03:22:29;;;;;;;28.60;21.70;;;13.70;87.70;;;;;;5052250;28;20470;-64
2022/03/17 03:24:57;;;;;;;24.37;20.80;;;13.50;87.70;;;;;;5051736;28;20179;-65
2022/03/17 03:27:27;;;;;;;26.47;20.63;;;13.50;88.40;;;;;;5054033;28;20423;-65
2022/03/17 03:29:54;;;;;;;23.37;19.97;;;13.50;88.30;;;;;;5053026;28;20444;-65
2022/03/17 03:32:20;;;;;;;24.10;21.50;;;13.50;88.40;;;;;;5052701;28;20823;-65
2022/03/17 03:34:46;;;;;;;24.60;20.77;;;13.50;88.40;;;;;;5053603;28;20418;-65
2022/03/17 03:37:23;;;;;;;27.13;21.80;;;13.40;88.50;;;;;;5052922;28;20231;-65
2022/03/17 03:39:53;;;;;;;24.07;21.20;;;13.40;89.00;;;;;;5053256;28;20535;-65
2022/03/17 03:42:20;;;;;;;25.37;22.00;;;13.50;88.90;;;;;;5053651;28;20537;-64
2022/03/17 03:44:46;;;;;;;24.07;21.47;;;13.40;89.00;;;;;;5053385;28;20403;-65
2022/03/17 03:47:12;;;;;;;25.77;21.97;;;13.40;89.00;;;;;;5052445;28;20732;-64
2022/03/17 03:49:39;;;;;;;23.67;21.10;;;13.40;89.40;;;;;;5053619;28;20454;-64
2022/03/17 03:52:07;;;;;;;24.03;20.97;;;13.30;89.30;;;;;;5052612;28;20446;-65
2022/03/17 03:54:32;;;;;;;25.93;21.20;;;13.40;89.40;;;;;;5053295;28;20414;-65
2022/03/17 03:56:58;;;;;;;24.73;20.80;;;13.20;89.50;;;;;;5052547;28;20422;-65
2022/03/17 03:59:26;;;;;;;25.80;21.40;;;13.30;89.90;;;;;;5052294;28;20183;-64
2022/03/17 04:02:03;;;;;;;24.17;21.00;;;13.20;89.80;;;;;;5052670;28;20208;-64
2022/03/17 04:04:30;;;;;;;25.10;21.93;;;13.10;90.30;;;;;;5052762;28;20960;-65
2022/03/17 04:07:03;;;;;;;26.83;22.17;;;13.10;90.20;;;;;;5052389;28;20556;-65
2022/03/17 04:09:33;;;;;;;24.50;21.53;;;13.10;90.10;;;;;;5051984;28;20403;-64
2022/03/17 04:11:59;;;;;;;26.47;23.60;;;13.10;90.20;;;;;;5052302;28;20424;-65
2022/03/17 04:14:24;;;;;;;26.90;22.23;;;13.00;90.30;;;;;;5052944;28;20840;-64
2022/03/17 04:16:50;;;;;;;27.13;21.93;;;13.00;90.50;;;;;;5052939;28;20252;-64
2022/03/17 04:19:17;;;;;;;26.20;21.63;;;13.00;90.60;;;;;;5052236;28;20270;-64
2022/03/17 04:21:44;;;;;;;25.57;21.77;;;12.90;90.60;;;;;;5053039;28;20459;-64
2022/03/17 04:24:10;;;;;;;23.77;19.90;;;12.90;90.60;;;;;;5052025;28;20430;-64
2022/03/17 04:26:35;;;;;;;24.47;19.93;;;13.00;90.70;;;;;;5053025;28;20464;-65
2022/03/17 04:29:01;;;;;;;25.73;21.83;;;13.10;90.60;;;;;;5052159;28;20545;-64
2022/03/17 04:31:28;;;;;;;27.17;22.10;;;13.20;90.50;;;;;;5052669;28;20879;-65
2022/03/17 04:33:55;;;;;;;26.63;22.20;;;13.10;90.60;;;;;;5052346;28;20189;-74
2022/03/17 04:36:21;;;;;;;27.10;22.30;;;13.20;90.60;;;;;;5051299;28;20825;-64
2022/03/17 04:38:48;;;;;;;27.53;21.50;;;13.20;90.60;;;;;;5051394;28;20404;-65
2022/03/17 04:41:14;;;;;;;25.13;21.17;;;13.30;90.50;;;;;;5051817;28;20420;-65
2022/03/17 04:43:40;;;;;;;25.60;20.97;;;13.30;90.60;;;;;;5052120;28;20936;-65
2022/03/17 04:46:07;;;;;;;25.23;22.57;;;13.40;90.60;;;;;;5051634;28;20417;-65
2022/03/17 04:48:34;;;;;;;28.27;22.70;;;13.40;90.80;;;;;;5052406;28;20757;-65
2022/03/17 04:50:59;;;;;;;27.93;23.47;;;13.40;90.60;;;;;;5051596;28;20407;-65
2022/03/17 04:53:29;;;;;;;30.20;23.03;;;13.30;90.60;;;;;;5052481;28;20746;-65
2022/03/17 04:56:00;;;;;;;27.50;23.10;;;13.30;90.70;;;;;;5052239;28;20534;-65
2022/03/17 04:58:28;;;;;;;28.93;22.50;;;13.40;90.60;;;;;;5052324;28;20419;-65
2022/03/17 05:00:55;;;;;;;27.97;23.13;;;13.40;90.80;;;;;;5052194;28;20416;-65
2022/03/17 05:03:21;;;;;;;27.30;24.27;;;13.20;90.90;;;;;;5051540;28;20962;-65
2022/03/17 05:05:48;;;;;;;26.20;23.40;;;13.20;91.00;;;;;;5052102;28;20436;-65
2022/03/17 05:08:14;;;;;;;27.27;22.67;;;13.20;91.50;;;;;;5051666;28;20413;-65
2022/03/17 05:10:44;;;;;;;27.13;22.23;;;13.30;91.10;;;;;;5053351;28;20407;-65
2022/03/17 05:13:11;;;;;;;25.47;22.67;;;13.30;91.20;;;;;;5055154;28;20421;-65
2022/03/17 05:15:37;;;;;;;27.43;22.00;;;13.30;91.30;;;;;;5055753;28;20419;-65
2022/03/17 05:18:05;;;;;;;26.80;22.50;;;13.30;91.60;;;;;;5055130;28;20417;-65
2022/03/17 05:20:31;;;;;;;28.00;22.90;;;13.30;91.70;;;;;;5055805;28;20450;-65
2022/03/17 05:22:57;;;;;;;25.83;23.13;;;13.40;92.00;;;;;;5055860;28;20447;-65
2022/03/17 05:25:23;;;;;;;30.33;25.00;;;13.40;91.90;;;;;;5055645;28;20509;-65
2022/03/17 05:27:49;;;;;;;27.97;23.23;;;13.50;92.00;;;;;;5054998;28;20512;-65
2022/03/17 05:30:18;;;;;;;29.40;24.87;;;13.60;92.10;;;;;;5055227;28;20750;-65
2022/03/17 05:32:44;;;;;;;30.17;24.73;;;13.60;92.10;;;;;;5055564;28;20427;-65
2022/03/17 05:35:11;;;;;;;29.60;24.00;;;13.60;92.20;;;;;;5055265;28;20408;-65
2022/03/17 05:37:39;;;;;;;28.87;24.60;;;13.60;92.60;;;;;;5055628;28;21020;-65
2022/03/17 05:40:09;;;;;;;27.97;24.90;;;13.50;93.00;;;;;;5055163;28;20428;-65
2022/03/17 05:42:36;;;;;;;26.40;23.23;;;13.50;93.30;;;;;;5055715;28;20616;-65
2022/03/17 05:45:03;;;;;;;27.83;24.40;;;13.50;93.70;;;;;;5055117;28;20410;-64
2022/03/17 05:47:36;;;;;;;27.90;24.33;;;13.50;93.90;;;;;;5055969;28;20415;-64
2022/03/17 05:50:04;;;;;;;31.67;25.33;;;13.60;94.40;;;;;;5054636;28;20907;-64
2022/03/17 05:52:31;;;;;;;31.90;25.77;;;13.60;94.80;;;;;;5055746;28;20502;-64
2022/03/17 05:54:57;;;;;;;30.70;25.57;;;13.60;95.00;;;;;;5055437;28;20431;-64
2022/03/17 05:57:23;;;;;;;30.53;24.63;;;13.70;95.50;;;;;;5054542;28;20407;-64
2022/03/17 05:59:49;;;;;;;30.10;26.30;;;13.70;95.80;;;;;;5055095;28;20416;-65
2022/03/17 06:02:14;;;;;;;29.37;24.77;;;13.60;95.90;;;;;;5054636;28;20201;-64
2022/03/17 06:04:41;;;;;;;31.60;26.10;;;13.60;96.60;;;;;;5055330;28;20189;-64
2022/03/17 06:07:07;;;;;;;29.70;26.50;;;13.60;97.10;;;;;;5054617;28;20207;-64
2022/03/17 06:09:33;;;;;;;30.87;26.70;;;13.60;97.60;;;;;;5054885;28;20410;-64
2022/03/17 06:11:59;;;;;;;30.60;26.27;;;13.60;97.90;;;;;;5054883;28;20882;-64
2022/03/17 06:14:27;;;;;;;31.10;26.00;;;13.60;97.80;;;;;;5054505;28;20173;-64
2022/03/17 06:16:53;;;;;;;31.97;25.67;;;13.50;98.00;;;;;;5055350;28;20435;-65
2022/03/17 06:19:19;;;;;;;35.07;26.83;;;13.50;98.50;;;;;;5054368;28;20968;-66
2022/03/17 06:21:45;;;;;;;31.07;25.87;;;13.40;98.70;;;;;;5052500;28;20465;-66
2022/03/17 06:24:11;;;;;;;31.97;27.77;;;13.40;99.00;;;;;;5053612;28;20429;-66
2022/03/17 06:26:36;;;;;;;31.57;26.53;;;13.40;99.40;;;;;;5055083;28;20951;-65
2022/03/17 06:29:02;;;;;;;30.03;25.33;;;13.40;99.90;;;;;;5054282;28;20177;-66
2022/03/17 06:31:28;;;;;;;33.20;27.70;;;13.40;99.90;;;;;;5054857;28;20229;-65
2022/03/17 06:33:54;;;;;;;33.00;26.80;;;13.30;99.90;;;;;;5054744;28;20175;-66
2022/03/17 06:36:21;;;;;;;31.70;26.40;;;13.30;99.90;;;;;;5053965;28;20186;-66
2022/03/17 06:38:46;;;;;;;33.50;27.17;;;13.30;99.90;;;;;;5054394;28;20445;-66
2022/03/17 06:41:12;;;;;;;32.43;27.97;;;13.30;99.90;;;;;;5053981;28;20410;-66
2022/03/17 06:43:37;;;;;;;35.00;28.30;;;13.30;99.90;;;;;;5054475;28;20671;-66
2022/03/17 06:46:03;;;;;;;32.67;27.40;;;13.30;99.90;;;;;;5052863;28;20177;-67
2022/03/17 06:48:29;;;;;;;34.07;28.50;;;13.30;99.90;;;;;;5054633;28;20172;-66
2022/03/17 06:50:55;;;;;;;37.50;28.80;;;13.20;99.90;;;;;;5054529;28;20414;-66
2022/03/17 06:53:21;;;;;;;34.97;28.93;;;13.20;99.90;;;;;;5053671;28;20743;-66
2022/03/17 06:55:46;;;;;;;33.67;27.13;;;13.20;99.90;;;;;;5054571;28;20191;-66
2022/03/17 06:58:12;;;;;;;32.57;27.13;;;13.10;99.90;;;;;;5053442;28;20623;-66
2022/03/17 07:00:38;;;;;;;34.50;28.53;;;13.20;99.90;;;;;;5053679;28;20176;-66
2022/03/17 07:03:03;;;;;;;38.50;28.77;;;13.10;99.90;;;;;;5053148;28;20207;-75
2022/03/17 07:05:29;;;;;;;35.63;30.30;;;13.10;99.90;;;;;;5054102;28;20180;-65
2022/03/17 07:07:55;;;;;;;37.47;30.37;;;13.10;99.90;;;;;;5054086;28;20401;-66
2022/03/17 07:10:21;;;;;;;35.93;31.13;;;13.10;99.90;;;;;;5053339;28;20232;-65
2022/03/17 07:12:47;;;;;;;37.77;29.20;;;13.00;99.90;;;;;;5052734;28;20187;-66
2022/03/17 07:15:13;;;;;;;37.13;28.93;;;13.00;99.90;;;;;;5052904;28;20411;-66
2022/03/17 07:17:40;;;;;;;35.80;29.07;;;13.00;99.90;;;;;;5053289;28;20414;-65
2022/03/17 07:20:19;;;;;;;36.50;29.43;;;13.00;99.90;;;;;;5052622;28;20461;-66
2022/03/17 07:22:47;;;;;;;35.60;29.33;;;13.00;99.90;;;;;;5053663;28;20802;-66
2022/03/17 07:25:14;;;;;;;34.30;28.00;;;13.00;99.90;;;;;;5053174;28;20421;-66
2022/03/17 07:27:44;;;;;;;36.77;30.20;;;13.00;99.90;;;;;;5054011;28;20821;-66
2022/03/17 07:30:13;;;;;;;32.57;25.73;;;12.90;99.90;;;;;;5052831;28;20417;-66
2022/03/17 07:32:39;;;;;;;24.37;21.17;;;12.90;99.90;;;;;;5053536;28;20428;-66
2022/03/17 07:35:06;;;;;;;20.10;17.73;;;12.80;99.90;;;;;;5053363;28;20414;-67
2022/03/17 07:37:32;;;;;;;22.50;18.60;;;12.70;99.90;;;;;;5053600;28;20181;-66
2022/03/17 07:39:58;;;;;;;23.10;18.70;;;12.60;99.90;;;;;;5052046;28;20914;-65
2022/03/17 07:42:23;;;;;;;25.17;20.77;;;12.60;99.90;;;;;;5051557;28;20206;-65
2022/03/17 07:44:49;;;;;;;24.97;19.53;;;12.50;99.90;;;;;;5052130;28;20181;-65
2022/03/17 07:47:15;;;;;;;21.20;17.43;;;12.50;99.90;;;;;;5052786;28;20189;-65
2022/03/17 07:49:41;;;;;;;22.80;18.50;;;12.40;99.90;;;;;;5053276;28;20206;-65
2022/03/17 07:52:07;;;;;;;22.20;18.60;;;12.40;99.90;;;;;;5052606;28;20241;-73
2022/03/17 07:54:34;;;;;;;23.07;18.03;;;12.40;99.90;;;;;;5051496;28;20189;-65
2022/03/17 07:57:03;;;;;;;24.80;18.30;;;12.30;99.90;;;;;;5053108;28;20410;-65
2022/03/17 07:59:29;;;;;;;21.20;17.27;;;12.20;99.90;;;;;;5052538;28;20470;-65
2022/03/17 08:01:54;;;;;;;23.10;18.77;;;12.30;99.90;;;;;;5052675;28;20500;-65
2022/03/17 08:04:20;;;;;;;25.20;17.13;;;12.20;99.90;;;;;;5052448;28;20448;-65
2022/03/17 08:06:46;;;;;;;21.83;17.27;;;12.10;99.90;;;;;;5052670;28;20626;-65
2022/03/17 08:09:12;;;;;;;17.40;15.13;;;12.10;99.90;;;;;;5052428;28;20411;-65
2022/03/17 08:11:38;;;;;;;17.80;15.90;;;12.00;99.90;;;;;;5051571;28;20230;-65
2022/03/17 08:14:04;;;;;;;16.53;14.47;;;12.00;99.90;;;;;;5053165;28;20895;-65
2022/03/17 08:16:29;;;;;;;16.40;14.70;;;11.80;99.90;;;;;;5052018;28;20172;-65
2022/03/17 08:18:55;;;;;;;17.70;14.90;;;11.70;99.90;;;;;;5052807;28;20181;-65
2022/03/17 08:21:20;;;;;;;17.33;14.70;;;11.70;99.90;;;;;;5052395;28;20576;-65
2022/03/17 08:23:46;;;;;;;16.20;14.63;;;11.50;99.90;;;;;;5052644;28;20263;-65
2022/03/17 08:26:13;;;;;;;18.33;16.47;;;11.50;99.90;;;;;;5051912;28;20185;-65
2022/03/17 08:28:38;;;;;;;19.37;17.07;;;11.40;99.90;;;;;;5052507;28;20266;-65
2022/03/17 08:31:04;;;;;;;16.07;14.37;;;11.40;99.90;;;;;;5052722;28;20814;-65
2022/03/17 08:33:30;;;;;;;18.97;15.80;;;11.40;99.90;;;;;;5052316;28;20191;-65
2022/03/17 08:35:56;;;;;;;20.33;16.70;;;11.40;99.90;;;;;;5052621;28;20213;-65
2022/03/17 08:38:21;;;;;;;19.17;17.27;;;11.40;99.90;;;;;;5051991;28;20170;-65
2022/03/17 08:40:47;;;;;;;19.57;17.53;;;11.40;99.90;;;;;;5052550;28;20590;-66
2022/03/17 08:43:13;;;;;;;19.33;15.00;;;11.50;99.90;;;;;;5051770;28;20214;-66
2022/03/17 08:51:12;;;;;;;23.10;15.03;;;11.50;99.90;;;;;;5051831;28;20724;-65
2022/03/17 08:53:38;;;;;;;17.93;15.50;;;11.60;99.90;;;;;;5050879;28;20412;-65
2022/03/17 08:56:05;;;;;;;15.53;13.97;;;11.50;99.90;;;;;;5052056;28;20416;-65
2022/03/17 08:58:31;;;;;;;13.63;12.23;;;11.40;99.90;;;;;;5051754;28;20452;-65
2022/03/17 09:01:00;;;;;;;11.13;10.03;;;11.40;99.90;;;;;;5052278;28;20459;-65
2022/03/17 09:03:26;;;;;;;10.70;9.60;;;11.40;99.90;;;;;;5051592;28;21009;-65
2022/03/17 09:05:52;;;;;;;10.13;8.80;;;11.50;99.90;;;;;;5052319;28;20747;-65
2022/03/17 09:08:18;;;;;;;9.53;8.47;;;11.30;99.90;;;;;;5051859;28;20458;-65
2022/03/17 09:10:45;;;;;;;8.37;7.63;;;11.30;99.90;;;;;;5052212;28;20177;-65
2022/03/17 09:13:13;;;;;;;9.80;8.80;;;11.30;99.90;;;;;;5051684;28;20216;-75
2022/03/17 09:15:41;;;;;;;10.67;9.53;;;11.40;99.90;;;;;;5052265;28;20407;-65
2022/03/17 09:18:11;;;;;;;10.00;9.00;;;11.40;99.90;;;;;;5052154;28;20409;-65
2022/03/17 09:20:38;;;;;;;9.57;8.60;;;11.30;99.90;;;;;;5052133;28;20476;-65
2022/03/17 09:23:04;;;;;;;8.13;7.33;;;11.30;99.90;;;;;;5051804;28;20940;-65
2022/03/17 09:25:31;;;;;;;8.73;7.60;;;11.30;99.90;;;;;;5051496;28;20436;-65
2022/03/17 09:27:57;;;;;;;8.47;7.60;;;11.30;99.90;;;;;;5067836;28;20772;-65
2022/03/17 09:30:23;;;;;;;7.67;6.97;;;11.40;99.90;;;;;;5051113;28;20426;-65
2022/03/17 09:32:52;;;;;;;7.17;6.60;;;11.40;99.90;;;;;;5051933;28;20424;-65
2022/03/17 09:35:19;;;;;;;7.20;6.60;;;11.50;99.90;;;;;;5051358;28;20427;-65
2022/03/17 09:37:44;;;;;;;7.67;6.37;;;11.50;99.90;;;;;;5051965;28;20429;-65
2022/03/17 09:40:11;;;;;;;7.70;7.10;;;11.50;99.90;;;;;;5051971;28;20416;-65
2022/03/17 09:42:38;;;;;;;8.27;7.50;;;11.60;99.90;;;;;;5050939;28;20481;-65
2022/03/17 09:45:05;;;;;;;7.00;6.40;;;11.60;99.90;;;;;;5051642;28;20807;-65
2022/03/17 09:47:37;;;;;;;7.43;6.70;;;11.60;99.90;;;;;;5051257;28;20466;-65
2022/03/17 09:50:04;;;;;;;6.80;6.20;;;11.60;99.90;;;;;;5051900;28;20447;-65
2022/03/17 09:52:31;;;;;;;8.73;7.37;;;11.60;99.90;;;;;;5051259;28;20761;-65
2022/03/17 09:54:57;;;;;;;8.20;7.40;;;11.70;99.90;;;;;;5051867;28;20775;-65
2022/03/17 09:57:23;;;;;;;11.00;9.30;;;11.60;99.90;;;;;;5052145;28;20418;-65
2022/03/17 09:59:56;;;;;;;9.13;8.43;;;11.70;99.90;;;;;;5055118;28;20415;-65
2022/03/17 10:02:22;;;;;;;6.93;5.73;;;11.70;99.90;;;;;;5054978;28;20240;-65
2022/03/17 10:04:48;;;;;;;6.40;5.17;;;11.70;99.90;;;;;;5054964;28;20753;-65
2022/03/17 10:07:18;;;;;;;7.23;5.70;;;11.80;99.90;;;;;;5054899;28;20473;-75
2022/03/17 10:09:45;;;;;;;5.90;5.50;;;11.90;99.90;;;;;;5055472;28;20444;-65
2022/03/17 10:12:13;;;;;;;5.60;5.00;;;11.90;99.90;;;;;;5055164;28;20479;-65
2022/03/17 10:14:43;;;;;;;7.70;6.53;;;11.90;99.90;;;;;;5054523;28;20811;-65
2022/03/17 10:17:33;;;;;;;6.77;6.27;;;11.90;99.90;;;;;;5055167;28;20412;-65
2022/03/17 10:20:25;;;;;;;7.50;6.60;;;11.90;99.90;;;;;;5055146;28;20463;-65
2022/03/17 10:22:53;;;;;;;7.07;6.47;;;11.80;99.90;;;;;;5055011;28;20546;-65
2022/03/17 10:25:24;;;;;;;7.90;7.20;;;11.80;99.90;;;;;;5054390;28;20430;-66
2022/03/17 10:27:54;;;;;;;8.90;8.10;;;11.80;99.90;;;;;;5054649;28;20445;-65
2022/03/17 10:30:35;;;;;;;9.30;8.07;;;11.80;99.90;;;;;;5054132;28;20424;-65
2022/03/17 10:33:09;;;;;;;9.73;8.83;;;11.80;99.90;;;;;;5055041;28;20435;-65
2022/03/17 10:35:36;;;;;;;7.67;6.90;;;11.90;99.90;;;;;;5036031;28;20434;-66
2022/03/17 10:38:15;;;;;;;8.63;7.67;;;11.90;99.90;;;;;;5054791;28;20411;-65
2022/03/17 10:40:42;;;;;;;9.40;8.77;;;12.00;99.90;;;;;;5054641;28;20511;-65
2022/03/17 10:43:17;;;;;;;8.57;7.57;;;12.00;99.90;;;;;;5054523;28;20461;-65
2022/03/17 10:45:44;;;;;;;16.50;11.10;;;12.00;99.90;;;;;;5054596;28;20428;-65
2022/03/17 10:48:12;;;;;;;8.30;7.33;;;12.00;99.90;;;;;;5054429;28;20807;-65
2022/03/17 10:50:44;;;;;;;11.80;7.70;;;12.00;99.90;;;;;;5053838;28;20416;-65
2022/03/17 10:53:11;;;;;;;8.50;7.10;;;12.00;99.90;;;;;;5054668;28;20424;-65
2022/03/17 10:55:38;;;;;;;8.27;7.50;;;12.10;99.90;;;;;;5053753;28;20411;-65
2022/03/17 10:58:15;;;;;;;9.57;8.57;;;12.00;99.90;;;;;;5054323;28;20418;-65
2022/03/17 11:00:58;;;;;;;8.43;7.50;;;12.00;99.90;;;;;;5052297;28;20931;-65
2022/03/17 11:03:25;;;;;;;7.80;6.97;;;12.10;99.90;;;;;;5053676;28;20447;-65
2022/03/17 11:05:51;;;;;;;7.83;6.20;;;12.00;99.90;;;;;;5053850;28;20424;-64
2022/03/17 11:08:18;;;;;;;7.23;6.50;;;12.00;99.90;;;;;;5053570;28;20496;-64
2022/03/17 11:10:44;;;;;;;9.70;7.60;;;12.10;99.90;;;;;;5053861;28;20419;-64
2022/03/17 11:13:11;;;;;;;7.87;6.97;;;12.10;99.90;;;;;;5053732;28;20766;-64
2022/03/17 11:15:48;;;;;;;9.70;7.57;;;12.00;99.90;;;;;;5053410;28;20411;-64
2022/03/17 11:18:20;;;;;;;8.83;7.93;;;12.00;99.90;;;;;;5053892;28;20488;-64
2022/03/17 11:20:46;;;;;;;9.90;9.00;;;12.00;99.90;;;;;;5053925;28;20836;-64
2022/03/17 11:23:22;;;;;;;11.30;10.10;;;12.00;99.90;;;;;;5053758;28;20474;-64
2022/03/17 11:25:58;;;;;;;11.67;9.60;;;12.00;99.90;;;;;;5053775;28;20419;-64
2022/03/17 11:28:38;;;;;;;11.10;10.00;;;12.00;99.90;;;;;;5052932;28;20765;-64
2022/03/17 11:31:05;;;;;;;13.07;8.50;;;12.00;99.90;;;;;;5053811;28;20499;-64
2022/03/17 11:33:35;;;;;;;9.23;8.33;;;12.00;99.90;;;;;;5053042;28;20415;-64
2022/03/17 11:36:08;;;;;;;8.80;8.00;;;12.00;99.90;;;;;;5053510;28;20415;-65
2022/03/17 11:38:38;;;;;;;9.73;8.53;;;12.00;99.90;;;;;;5052945;28;20404;-64
2022/03/17 11:41:12;;;;;;;12.53;9.43;;;12.00;99.90;;;;;;5053791;28;20401;-64
2022/03/17 11:43:58;;;;;;;9.23;7.20;;;12.10;99.90;;;;;;5052752;28;20455;-65
2022/03/17 11:46:34;;;;;;;8.63;7.73;;;12.10;99.90;;;;;;5052754;28;20395;-66
2022/03/17 11:49:20;;;;;;;9.47;5.03;;;12.10;99.90;;;;;;5053491;28;20411;-66
2022/03/17 11:52:03;;;;;;;7.10;6.00;;;12.10;99.40;;;;;;5051941;28;20830;-66
2022/03/17 11:54:31;;;;;;;6.07;4.13;;;12.10;98.60;;;;;;5052523;28;20466;-66
2022/03/17 11:56:59;;;;;;;5.70;5.00;;;12.10;98.40;;;;;;5052830;28;20412;-65
2022/03/17 11:59:47;;;;;;;7.47;4.77;;;12.20;98.10;;;;;;5052412;28;20434;-66
2022/03/17 12:02:14;;;;;;;4.83;3.40;;;12.20;98.70;;;;;;5051533;28;20464;-64
2022/03/17 12:04:47;;;;;;;5.80;5.30;;;12.20;97.80;;;;;;5052664;28;20427;-65
2022/03/17 12:07:14;;;;;;;7.00;4.77;;;12.20;97.70;;;;;;5051614;28;20409;-65
2022/03/17 12:09:40;;;;;;;5.03;3.57;;;12.30;97.80;;;;;;5052331;28;20457;-65
2022/03/17 12:12:25;;;;;;;7.47;6.00;;;12.30;98.10;;;;;;5052856;28;20817;-65
2022/03/17 12:15:00;;;;;;;5.37;4.20;;;12.30;98.00;;;;;;5052913;28;20443;-66
2022/03/17 12:17:27;;;;;;;3.43;3.13;;;12.30;98.00;;;;;;5051855;28;20404;-72
2022/03/17 12:20:05;;;;;;;6.90;3.50;;;12.30;97.90;;;;;;5050168;28;20456;-66
2022/03/17 12:22:31;;;;;;;5.73;3.70;;;12.30;98.00;;;;;;5051456;28;20455;-66
2022/03/17 12:25:03;;;;;;;4.57;3.83;;;12.30;97.70;;;;;;5068386;28;20832;-66
2022/03/17 12:27:34;;;;;;;6.93;4.23;;;12.30;97.20;;;;;;5050949;28;20590;-66
2022/03/17 12:30:01;;;;;;;4.13;3.73;;;12.40;97.40;;;;;;5052518;28;20414;-66
2022/03/17 12:32:30;;;;;;;5.60;4.97;;;12.40;97.60;;;;;;5052006;28;20482;-66
2022/03/17 12:34:57;;;;;;;5.70;3.10;;;12.40;97.80;;;;;;5052759;28;20416;-65
2022/03/17 12:37:26;;;;;;;5.53;2.90;;;12.40;96.90;;;;;;5052575;28;20447;-66
2022/03/17 12:39:54;;;;;;;4.07;2.90;;;12.50;96.50;;;;;;5052521;28;20415;-66
2022/03/17 12:42:31;;;;;;;3.57;2.87;;;12.60;96.40;;;;;;5052151;28;20448;-66
2022/03/17 12:45:06;;;;;;;7.43;4.33;;;12.70;96.40;;;;;;5052558;28;20407;-66
2022/03/17 12:47:36;;;;;;;7.07;3.57;;;12.80;96.40;;;;;;5051864;28;20515;-65
2022/03/17 12:50:14;;;;;;;4.17;3.70;;;12.80;95.80;;;;;;5051461;28;20912;-66